Crary Mills, New York
Current Conditions -  °F | °C
As of 10:53 PM on Wednesday 26 Nov 2014 (Local Time) from KMSS Reporting Station
Overcast Overcast  
Wind Chill: 22°   Ceiling: 9000
Heat Index: 31°   Visibility: 10mi
Dew Point: 21°   Wind: 10mph
Humidity: 67%   Direction: 40°NE
Pressure: 30.04"   Gusts: NA
Location:  44.5792°N, 75.1592°W
Report Text: KMSS 270353Z AUTO 04009KT 10SM OVC090 M01/M06 A3004 RMK AO2 SLP178 T10061061
Loading
Personal Weather Stations






























Interactive Weather Map New forecast layout! Learn more

10-Day Weather Forecast

Advertisements
Track Severe Weather on mobile